createdAt,value
2023-01-17T00:01:55.571Z,3.27
2023-01-17T00:04:40.523Z,3.26
2023-01-17T00:07:33.866Z,3.24
2023-01-17T00:10:07.366Z,3.24
2023-01-17T00:12:34.787Z,3.20
2023-01-17T00:15:01.902Z,3.20
2023-01-17T00:17:29.990Z,3.19
2023-01-17T00:20:15.747Z,3.20
2023-01-17T00:23:03.043Z,3.15
2023-01-17T00:25:58.511Z,3.10
2023-01-17T00:28:26.477Z,3.10
2023-01-17T00:30:53.454Z,3.04
2023-01-17T00:33:21.985Z,2.91
2023-01-17T00:35:49.690Z,2.87
2023-01-17T00:38:19.033Z,2.79
2023-01-17T00:40:46.991Z,2.57
2023-01-17T00:43:35.027Z,2.55
2023-01-17T00:46:20.943Z,2.58
2023-01-17T00:49:06.233Z,2.50
2023-01-17T00:51:53.689Z,2.53
2023-01-17T00:54:39.484Z,2.64
2023-01-17T00:57:25.810Z,2.69
2023-01-17T01:00:11.753Z,2.69
2023-01-17T01:02:57.050Z,2.61
2023-01-17T01:05:42.407Z,2.69
2023-01-17T01:08:43.062Z,2.74
2023-01-17T01:11:33.372Z,2.67
2023-01-17T01:14:19.827Z,2.74
2023-01-17T01:17:05.678Z,2.74
2023-01-17T01:19:50.893Z,2.72
2023-01-17T01:22:36.249Z,2.70
2023-01-17T01:25:21.652Z,2.65
2023-01-17T01:28:07.107Z,2.60
2023-01-17T01:30:52.431Z,2.65
2023-01-17T01:33:19.118Z,2.64
2023-01-17T01:35:54.282Z,2.65
2023-01-17T01:38:23.323Z,2.66
2023-01-17T01:40:55.742Z,2.65
2023-01-17T01:43:49.478Z,2.63
2023-01-17T01:46:38.192Z,2.59
2023-01-17T01:49:25.115Z,2.56
2023-01-17T01:51:59.025Z,2.64
2023-01-17T01:54:30.244Z,2.68
2023-01-17T01:57:03.196Z,2.58
2023-01-17T01:59:31.074Z,2.62
2023-01-17T02:02:00.586Z,2.63
2023-01-17T02:04:28.442Z,2.61
2023-01-17T02:07:07.402Z,2.58
2023-01-17T02:09:34.600Z,2.54
2023-01-17T02:12:03.104Z,2.54
2023-01-17T02:14:29.910Z,2.55
2023-01-17T02:17:18.225Z,2.56
2023-01-17T02:20:32.963Z,2.55
2023-01-17T02:23:13.255Z,2.51
2023-01-17T02:26:01.682Z,2.50
2023-01-17T02:28:43.314Z,2.49
2023-01-17T02:31:17.503Z,2.39
2023-01-17T02:34:18.349Z,2.47
2023-01-17T02:36:52.039Z,2.45
2023-01-17T02:39:26.470Z,2.43
2023-01-17T02:42:16.761Z,2.41
2023-01-17T02:44:44.903Z,2.37
2023-01-17T02:47:23.576Z,2.43
2023-01-17T02:49:52.821Z,2.43
2023-01-17T02:52:34.512Z,2.43
2023-01-17T02:55:26.000Z,2.40
2023-01-17T02:58:30.123Z,2.34
2023-01-17T03:01:06.912Z,2.40
2023-01-17T03:03:40.654Z,2.37
2023-01-17T03:06:12.497Z,2.37
2023-01-17T03:08:42.046Z,2.32
2023-01-17T03:11:10.196Z,2.34
2023-01-17T03:13:37.600Z,2.30
2023-01-17T03:16:17.044Z,2.23
2023-01-17T03:18:43.778Z,2.19
2023-01-17T03:21:10.517Z,2.21
2023-01-17T03:23:37.151Z,2.16
2023-01-17T03:26:03.961Z,2.11
2023-01-17T03:28:30.745Z,1.98
2023-01-17T03:30:57.486Z,2.01
2023-01-17T03:33:25.158Z,1.90
2023-01-17T03:35:51.980Z,1.92
2023-01-17T03:38:19.564Z,1.91
2023-01-17T03:40:46.311Z,1.92
2023-01-17T03:43:12.981Z,1.99
2023-01-17T03:45:39.637Z,1.85
2023-01-17T03:48:06.717Z,1.90
2023-01-17T03:50:33.468Z,1.65
2023-01-17T03:53:00.160Z,1.66
2023-01-17T03:55:26.966Z,1.71
2023-01-17T03:57:53.579Z,1.78
2023-01-17T04:00:20.933Z,1.77
2023-01-17T04:02:47.621Z,1.78
2023-01-17T04:05:14.434Z,1.80
2023-01-17T04:07:41.453Z,1.75
2023-01-17T04:10:09.107Z,1.72
2023-01-17T04:12:35.776Z,1.68
2023-01-17T04:15:02.496Z,1.66
2023-01-17T04:17:29.194Z,1.71
2023-01-17T04:19:56.041Z,1.67
2023-01-17T04:22:22.749Z,1.67
2023-01-17T04:24:49.436Z,1.66
2023-01-17T04:27:16.134Z,1.65
2023-01-17T04:29:43.556Z,1.58
2023-01-17T04:32:10.976Z,1.52
2023-01-17T04:34:37.606Z,1.54
2023-01-17T04:37:04.249Z,1.48
2023-01-17T04:39:30.948Z,1.52
2023-01-17T04:41:57.725Z,1.42
2023-01-17T04:44:24.441Z,1.42
2023-01-17T04:46:51.078Z,1.40
2023-01-17T04:49:17.804Z,1.38
2023-01-17T04:51:44.611Z,1.38
2023-01-17T04:54:11.267Z,1.34
2023-01-17T04:56:38.048Z,1.32
2023-01-17T04:59:04.913Z,1.35
2023-01-17T05:01:31.763Z,1.21
2023-01-17T05:03:58.618Z,1.22
2023-01-17T05:06:25.254Z,1.16
2023-01-17T05:08:51.971Z,1.07
2023-01-17T05:11:18.959Z,1.11
2023-01-17T05:13:48.036Z,1.10
2023-01-17T05:16:18.175Z,1.02
2023-01-17T05:18:45.067Z,1.02
2023-01-17T05:21:11.704Z,0.98
2023-01-17T05:23:38.679Z,0.94
2023-01-17T05:26:05.469Z,0.89
2023-01-17T05:28:32.083Z,0.97
2023-01-17T05:30:58.863Z,0.88
2023-01-17T05:33:25.568Z,0.88
2023-01-17T05:35:52.271Z,0.74
2023-01-17T05:38:19.089Z,0.74
2023-01-17T05:40:45.747Z,0.69
2023-01-17T05:43:12.405Z,0.74
2023-01-17T05:45:39.068Z,0.72
2023-01-17T05:48:06.778Z,0.72
2023-01-17T05:50:38.103Z,0.68
2023-01-17T05:53:07.554Z,0.64
2023-01-17T05:55:35.472Z,0.64
2023-01-17T05:58:02.809Z,0.58
2023-01-17T06:00:30.073Z,0.64
2023-01-17T06:02:58.632Z,0.57
2023-01-17T06:05:26.743Z,0.54
2023-01-17T06:07:53.585Z,0.61
2023-01-17T06:10:22.361Z,0.49
2023-01-17T06:12:49.812Z,0.46
2023-01-17T06:15:18.423Z,0.57
2023-01-17T06:17:45.199Z,0.62
2023-01-17T06:20:12.651Z,0.51
2023-01-17T06:22:39.515Z,0.51
2023-01-17T06:25:07.113Z,0.54
2023-01-17T06:27:34.014Z,0.54
2023-01-17T06:30:00.780Z,0.41
2023-01-17T06:32:27.661Z,0.30
2023-01-17T06:34:54.323Z,0.33
2023-01-17T06:37:20.956Z,0.26
2023-01-17T06:39:48.011Z,0.24
2023-01-17T06:42:14.872Z,0.30
2023-01-17T06:44:41.663Z,0.24
2023-01-17T06:47:08.319Z,0.34
2023-01-17T06:49:35.038Z,0.23
2023-01-17T06:52:01.774Z,0.28
2023-01-17T06:54:28.405Z,0.28
2023-01-17T06:56:55.056Z,0.36
2023-01-17T06:59:21.687Z,0.15
2023-01-17T07:01:48.404Z,0.15
2023-01-17T07:04:15.282Z,0.16
2023-01-17T07:06:42.476Z,0.08
2023-01-17T07:09:09.135Z,-0.03
2023-01-17T07:11:35.809Z,-0.07
2023-01-17T07:14:02.548Z,-0.11
2023-01-17T07:16:29.242Z,-0.09
2023-01-17T07:18:57.184Z,-0.17
2023-01-17T07:21:24.128Z,-0.21
2023-01-17T07:23:50.764Z,-0.37
2023-01-17T07:26:17.606Z,-0.32
2023-01-17T07:28:44.448Z,-0.32
2023-01-17T07:31:11.337Z,-0.28
2023-01-17T07:33:39.146Z,-0.15
2023-01-17T07:36:09.875Z,0.52
2023-01-17T07:38:36.629Z,0.95
2023-01-17T07:41:03.474Z,1.16
2023-01-17T07:43:30.204Z,1.65
2023-01-17T07:45:57.079Z,1.97
2023-01-17T07:48:24.902Z,1.89
2023-01-17T07:50:57.166Z,1.97
2023-01-17T07:53:29.107Z,2.10
2023-01-17T07:55:59.997Z,2.50
2023-01-17T07:58:26.603Z,2.45
2023-01-17T08:00:53.550Z,2.29
2023-01-17T08:03:20.511Z,2.42
2023-01-17T08:05:55.411Z,2.86
2023-01-17T08:08:22.121Z,3.03
2023-01-17T08:10:49.566Z,3.31
2023-01-17T08:13:16.192Z,3.51
2023-01-17T08:15:43.177Z,3.66
2023-01-17T08:18:09.902Z,3.50
2023-01-17T08:20:36.603Z,3.36
2023-01-17T08:23:03.311Z,3.07
2023-01-17T08:25:30.177Z,3.53
2023-01-17T08:27:58.192Z,3.43
2023-01-17T08:30:26.356Z,3.48
2023-01-17T08:32:53.843Z,3.32
2023-01-17T08:35:21.329Z,3.14
2023-01-17T08:37:53.043Z,3.19
2023-01-17T08:40:19.938Z,3.51
2023-01-17T08:42:58.136Z,3.49
2023-01-17T08:45:24.960Z,2.91
2023-01-17T08:47:51.699Z,2.61
2023-01-17T08:50:21.639Z,2.95
2023-01-17T08:52:49.595Z,2.90
2023-01-17T08:55:17.146Z,2.64
2023-01-17T08:57:43.850Z,2.78
2023-01-17T09:00:11.137Z,2.73
2023-01-17T09:02:37.833Z,2.58
2023-01-17T09:05:05.007Z,2.42
2023-01-17T09:07:31.741Z,2.36
2023-01-17T09:09:58.542Z,2.50
2023-01-17T09:12:25.321Z,2.10
2023-01-17T09:14:51.970Z,2.05
2023-01-17T09:17:18.632Z,2.42
2023-01-17T09:19:47.663Z,2.29
2023-01-17T09:22:15.047Z,2.16
2023-01-17T09:24:42.255Z,2.19
2023-01-17T09:27:08.926Z,2.13
2023-01-17T09:29:35.628Z,2.24
2023-01-17T09:32:02.440Z,2.19
2023-01-17T09:34:30.573Z,2.42
2023-01-17T09:36:57.539Z,2.61
2023-01-17T09:39:24.412Z,2.73
2023-01-17T09:42:03.302Z,2.83
2023-01-17T09:44:41.381Z,3.09
2023-01-17T09:47:18.188Z,3.49
2023-01-17T09:49:46.868Z,3.49
2023-01-17T09:52:19.029Z,3.65
2023-01-17T09:54:48.063Z,3.89
2023-01-17T09:57:20.793Z,4.24
2023-01-17T10:00:06.520Z,4.11
2023-01-17T10:03:03.290Z,4.42
2023-01-17T10:05:50.531Z,4.42
2023-01-17T10:08:27.790Z,4.68
2023-01-17T10:10:55.171Z,4.49
2023-01-17T10:13:49.864Z,4.70
2023-01-17T10:16:37.807Z,4.55
2023-01-17T10:19:12.957Z,4.79
2023-01-17T10:21:45.618Z,4.17
2023-01-17T10:24:23.288Z,4.67
2023-01-17T10:26:53.558Z,4.76
2023-01-17T10:29:21.286Z,4.56
2023-01-17T10:31:55.953Z,4.99
2023-01-17T10:34:29.345Z,4.49
2023-01-17T10:37:06.091Z,5.30
2023-01-17T10:39:32.824Z,5.44
2023-01-17T10:42:13.304Z,5.40
2023-01-17T10:44:50.918Z,5.46
2023-01-17T10:47:23.652Z,4.60
2023-01-17T10:49:55.347Z,5.35
2023-01-17T10:52:27.703Z,5.03
2023-01-17T10:55:06.235Z,5.23
2023-01-17T10:57:40.750Z,5.41
2023-01-17T11:00:14.098Z,5.17
2023-01-17T11:02:47.759Z,5.10
2023-01-17T11:05:23.092Z,5.14
2023-01-17T11:08:06.550Z,5.58
2023-01-17T11:10:39.783Z,5.51
2023-01-17T11:13:31.738Z,5.31
2023-01-17T11:16:02.960Z,5.59
2023-01-17T11:18:32.865Z,5.14
2023-01-17T11:21:23.391Z,5.38
2023-01-17T11:23:54.832Z,5.53
2023-01-17T11:26:27.825Z,4.92
2023-01-17T11:29:25.681Z,5.38
2023-01-17T11:31:52.976Z,4.36
2023-01-17T11:34:25.598Z,4.92
2023-01-17T11:37:09.041Z,4.89
2023-01-17T11:39:35.761Z,4.23
2023-01-17T11:42:06.156Z,4.46
2023-01-17T11:44:35.104Z,5.09
2023-01-17T11:47:14.812Z,5.09
2023-01-17T11:49:43.936Z,5.09
2023-01-17T11:52:24.619Z,5.47
2023-01-17T11:54:54.499Z,4.39
2023-01-17T11:57:26.314Z,4.53
2023-01-17T12:00:03.538Z,4.25
2023-01-17T12:03:15.333Z,4.82
2023-01-17T12:05:53.745Z,4.65
2023-01-17T12:08:42.071Z,4.10
2023-01-17T12:11:08.684Z,4.40
2023-01-17T12:14:04.030Z,4.70
2023-01-17T12:17:00.912Z,4.86
2023-01-17T12:19:32.472Z,5.22
2023-01-17T12:22:23.798Z,5.35
2023-01-17T12:24:59.295Z,5.39
2023-01-17T12:27:42.579Z,5.09
2023-01-17T12:30:24.855Z,5.00
2023-01-17T12:32:57.227Z,5.07
2023-01-17T12:35:44.272Z,5.41
2023-01-17T12:38:27.354Z,5.18
2023-01-17T12:41:06.113Z,5.65
2023-01-17T12:43:43.934Z,5.16
2023-01-17T12:46:21.045Z,5.66
2023-01-17T12:48:52.282Z,5.37
2023-01-17T12:51:21.696Z,5.68
2023-01-17T12:54:00.344Z,6.13
2023-01-17T12:56:35.715Z,6.47
2023-01-17T12:59:13.268Z,5.65
2023-01-17T13:01:43.349Z,6.10
2023-01-17T13:04:57.375Z,6.09
2023-01-17T13:07:35.203Z,5.67
2023-01-17T13:10:35.505Z,5.31
2023-01-17T13:13:13.376Z,5.13
2023-01-17T13:15:41.829Z,4.54
2023-01-17T13:18:23.342Z,4.91
2023-01-17T13:20:54.020Z,4.81
2023-01-17T13:23:33.235Z,4.87
2023-01-17T13:26:00.429Z,4.99
2023-01-17T13:29:00.336Z,4.51
2023-01-17T13:31:38.468Z,3.97
2023-01-17T13:34:22.771Z,4.53
2023-01-17T13:37:04.674Z,4.37
2023-01-17T13:39:37.411Z,4.35
2023-01-17T13:42:39.043Z,4.22
2023-01-17T13:45:19.096Z,4.33
2023-01-17T13:47:45.716Z,4.49
2023-01-17T13:50:43.444Z,4.30
2023-01-17T13:53:28.780Z,4.23
2023-01-17T13:56:20.055Z,4.13
2023-01-17T13:58:50.622Z,4.05
2023-01-17T14:01:23.631Z,3.81
2023-01-17T14:03:50.424Z,3.92
2023-01-17T14:06:36.297Z,4.11
2023-01-17T14:09:02.892Z,3.88
2023-01-17T14:11:33.780Z,4.08
2023-01-17T14:14:39.508Z,4.04
2023-01-17T14:17:26.086Z,3.97
2023-01-17T14:20:02.151Z,3.90
2023-01-17T14:22:31.730Z,4.15
2023-01-17T14:25:20.836Z,4.30
2023-01-17T14:27:50.279Z,4.23
2023-01-17T14:30:17.566Z,4.17
2023-01-17T14:32:59.345Z,3.72
2023-01-17T14:35:35.293Z,3.73
2023-01-17T14:38:03.395Z,3.39
2023-01-17T14:40:33.192Z,3.14
2023-01-17T14:43:18.577Z,3.21
2023-01-17T14:45:45.532Z,3.27
2023-01-17T14:48:18.927Z,3.20
2023-01-17T14:50:47.915Z,3.02
2023-01-17T14:53:14.554Z,2.98
2023-01-17T14:55:47.093Z,3.03
2023-01-17T14:58:17.869Z,2.90
2023-01-17T15:00:45.053Z,3.00
2023-01-17T15:03:13.082Z,2.90
2023-01-17T15:05:44.203Z,2.77
2023-01-17T15:08:14.408Z,2.78
2023-01-17T15:11:07.566Z,2.80
2023-01-17T15:13:45.214Z,2.78
2023-01-17T15:16:33.395Z,2.66
2023-01-17T15:19:00.747Z,2.65
2023-01-17T15:21:30.984Z,2.62
2023-01-17T15:23:59.988Z,2.41
2023-01-17T15:26:29.806Z,2.54
2023-01-17T15:29:04.381Z,2.30
2023-01-17T15:31:43.344Z,2.08
2023-01-17T15:34:17.981Z,2.08
2023-01-17T15:36:48.896Z,2.10
2023-01-17T15:39:20.564Z,1.95
2023-01-17T15:41:48.259Z,1.85
2023-01-17T15:44:48.538Z,1.67
2023-01-17T15:47:31.083Z,1.55
2023-01-17T15:49:59.810Z,1.53
2023-01-17T15:52:27.190Z,1.47
2023-01-17T15:54:58.912Z,1.40
2023-01-17T15:57:36.916Z,1.42
2023-01-17T16:00:07.770Z,1.47
2023-01-17T16:02:59.036Z,1.37
2023-01-17T16:05:31.115Z,1.34
2023-01-17T16:08:23.162Z,1.33
2023-01-17T16:10:59.213Z,1.21
2023-01-17T16:13:25.903Z,1.11
2023-01-17T16:15:52.608Z,1.16
2023-01-17T16:18:24.032Z,1.03
2023-01-17T16:21:01.538Z,0.83
2023-01-17T16:23:28.655Z,0.93
2023-01-17T16:25:55.357Z,0.85
2023-01-17T16:28:22.045Z,0.81
2023-01-17T16:30:48.988Z,0.81
2023-01-17T16:33:16.104Z,0.70
2023-01-17T16:35:43.085Z,0.75
2023-01-17T16:38:19.243Z,0.73
2023-01-17T16:40:47.190Z,0.71
2023-01-17T16:43:15.566Z,0.59
2023-01-17T16:45:53.011Z,0.57
2023-01-17T16:48:20.803Z,0.48
2023-01-17T16:50:52.343Z,0.44
2023-01-17T16:53:25.126Z,0.47
2023-01-17T16:55:55.138Z,0.36
2023-01-17T16:58:21.875Z,0.28
2023-01-17T17:00:48.534Z,0.48
2023-01-17T17:03:18.077Z,0.31
2023-01-17T17:05:47.315Z,0.34
2023-01-17T17:08:15.354Z,0.24
2023-01-17T17:10:42.194Z,0.23
2023-01-17T17:13:09.018Z,0.15
2023-01-17T17:15:40.326Z,0.11
2023-01-17T17:18:07.136Z,0.06
2023-01-17T17:20:33.890Z,0.00
2023-01-17T17:23:00.581Z,-0.06
2023-01-17T17:25:27.390Z,0.01
2023-01-17T17:27:54.605Z,0.08
2023-01-17T17:30:21.397Z,0.07
2023-01-17T17:32:48.175Z,0.18
2023-01-17T17:35:14.970Z,0.29
2023-01-17T17:37:41.674Z,0.25
2023-01-17T17:40:09.174Z,0.15
2023-01-17T17:42:35.832Z,0.34
2023-01-17T17:45:02.788Z,0.30
2023-01-17T17:47:30.753Z,0.20
2023-01-17T17:49:57.476Z,0.16
2023-01-17T17:52:24.167Z,0.29
2023-01-17T17:54:50.976Z,0.27
2023-01-17T17:57:17.698Z,0.42
2023-01-17T17:59:44.455Z,0.47
2023-01-17T18:02:11.773Z,0.44
2023-01-17T18:04:38.707Z,0.33
2023-01-17T18:07:05.590Z,0.44
2023-01-17T18:09:32.307Z,0.34
2023-01-17T18:11:59.158Z,0.41
2023-01-17T18:14:26.097Z,0.52
2023-01-17T18:16:52.780Z,0.54
2023-01-17T18:19:22.221Z,0.47
2023-01-17T18:21:50.469Z,0.53
2023-01-17T18:24:22.674Z,0.62
2023-01-17T18:26:52.001Z,0.71
2023-01-17T18:29:20.959Z,0.70
2023-01-17T18:31:52.242Z,0.60
2023-01-17T18:34:24.574Z,0.68
2023-01-17T18:36:52.082Z,0.64
2023-01-17T18:39:20.364Z,0.80
2023-01-17T18:41:47.939Z,0.84
2023-01-17T18:44:14.715Z,0.72
2023-01-17T18:46:42.258Z,0.76
2023-01-17T18:49:14.898Z,0.87
2023-01-17T18:51:46.654Z,0.87
2023-01-17T18:54:13.640Z,0.82
2023-01-17T18:56:40.696Z,0.86
2023-01-17T18:59:09.018Z,0.78
2023-01-17T19:01:36.854Z,0.73
2023-01-17T19:04:05.919Z,0.89
2023-01-17T19:06:35.596Z,0.87
2023-01-17T19:09:02.998Z,0.86
2023-01-17T19:11:30.123Z,0.88
2023-01-17T19:13:57.041Z,0.85
2023-01-17T19:16:29.596Z,0.91
2023-01-17T19:19:01.848Z,0.91
2023-01-17T19:21:29.186Z,0.95
2023-01-17T19:23:57.259Z,0.93
2023-01-17T19:26:27.336Z,0.92
2023-01-17T19:28:56.324Z,0.79
2023-01-17T19:31:25.821Z,0.92
2023-01-17T19:33:54.766Z,0.88
2023-01-17T19:36:24.321Z,0.67
2023-01-17T19:39:03.479Z,0.67
2023-01-17T19:41:31.901Z,0.52
2023-01-17T19:44:03.328Z,0.46
2023-01-17T19:46:30.569Z,0.45
2023-01-17T19:48:57.752Z,0.65
2023-01-17T19:51:25.310Z,0.75
2023-01-17T19:53:53.681Z,0.72
2023-01-17T19:56:24.558Z,0.70
2023-01-17T19:58:52.284Z,0.68
2023-01-17T20:01:22.345Z,0.68
2023-01-17T20:03:50.457Z,0.61
2023-01-17T20:06:22.539Z,0.72
2023-01-17T20:08:49.702Z,0.89
2023-01-17T20:11:19.711Z,0.96
2023-01-17T20:13:49.868Z,0.98
2023-01-17T20:16:17.542Z,0.94
2023-01-17T20:18:44.629Z,0.94
2023-01-17T20:21:19.888Z,0.81
2023-01-17T20:23:47.889Z,0.83
2023-01-17T20:26:16.419Z,0.78
2023-01-17T20:28:45.354Z,0.88
2023-01-17T20:31:15.456Z,0.84
2023-01-17T20:33:44.143Z,0.70
2023-01-17T20:36:15.859Z,0.58
2023-01-17T20:38:43.992Z,0.61
2023-01-17T20:41:19.457Z,0.81
2023-01-17T20:43:51.306Z,0.83
2023-01-17T20:46:19.494Z,0.93
2023-01-17T20:48:47.125Z,0.92
2023-01-17T20:51:15.079Z,0.97
2023-01-17T20:53:43.550Z,0.95
2023-01-17T20:56:12.170Z,0.93
2023-01-17T20:58:38.923Z,0.90
2023-01-17T21:01:06.439Z,0.82
2023-01-17T21:03:34.981Z,0.85
2023-01-17T21:06:13.900Z,0.87
2023-01-17T21:08:43.461Z,0.88
2023-01-17T21:11:12.725Z,0.82
2023-01-17T21:13:40.228Z,0.95
2023-01-17T21:16:09.401Z,0.96
2023-01-17T21:18:36.432Z,0.89
2023-01-17T21:21:08.457Z,0.79
2023-01-17T21:23:36.242Z,0.91
2023-01-17T21:26:03.928Z,0.97
2023-01-17T21:28:34.881Z,0.99
2023-01-17T21:31:06.338Z,0.89
2023-01-17T21:33:33.082Z,0.92
2023-01-17T21:36:08.615Z,0.93
2023-01-17T21:38:35.362Z,0.90
2023-01-17T21:41:02.620Z,0.87
2023-01-17T21:43:29.501Z,0.95
2023-01-17T21:45:56.168Z,0.92
2023-01-17T21:48:22.997Z,0.92
2023-01-17T21:50:52.671Z,0.94
2023-01-17T21:53:19.352Z,0.98
2023-01-17T21:56:05.076Z,1.06
2023-01-17T21:58:43.882Z,1.03
2023-01-17T22:01:18.350Z,1.02
2023-01-17T22:03:54.864Z,0.88
2023-01-17T22:06:23.682Z,0.89
2023-01-17T22:08:50.587Z,0.87
2023-01-17T22:11:20.427Z,0.88
2023-01-17T22:13:47.446Z,0.92
2023-01-17T22:16:16.862Z,0.82
2023-01-17T22:18:45.047Z,0.72
2023-01-17T22:21:13.471Z,0.83
2023-01-17T22:23:45.464Z,0.87
2023-01-17T22:26:12.279Z,0.85
2023-01-17T22:28:39.865Z,0.89
2023-01-17T22:31:17.272Z,0.98
2023-01-17T22:33:45.790Z,0.93
2023-01-17T22:36:14.025Z,0.88
2023-01-17T22:38:42.136Z,0.84
2023-01-17T22:41:13.173Z,0.80
2023-01-17T22:43:42.307Z,0.81
2023-01-17T22:46:12.245Z,0.83
2023-01-17T22:48:40.176Z,0.88
2023-01-17T22:51:09.190Z,0.89
2023-01-17T22:53:47.367Z,0.87
2023-01-17T22:56:20.381Z,0.78
2023-01-17T22:58:48.949Z,0.83
2023-01-17T23:01:17.611Z,0.80
2023-01-17T23:03:45.452Z,0.89
2023-01-17T23:06:15.163Z,0.71
2023-01-17T23:08:44.627Z,0.68
2023-01-17T23:11:46.192Z,0.71
2023-01-17T23:14:22.129Z,0.66
2023-01-17T23:17:22.054Z,0.57
2023-01-17T23:19:51.182Z,0.49
2023-01-17T23:22:23.342Z,0.42
2023-01-17T23:24:55.402Z,0.41
2023-01-17T23:27:45.270Z,0.46
2023-01-17T23:30:26.387Z,0.48
2023-01-17T23:32:55.569Z,0.41
2023-01-17T23:35:25.755Z,0.36
2023-01-17T23:38:11.087Z,0.32
2023-01-17T23:40:38.966Z,0.34
2023-01-17T23:43:32.607Z,0.26
2023-01-17T23:45:59.569Z,0.18
2023-01-17T23:48:26.795Z,0.18
2023-01-17T23:51:07.037Z,0.18
2023-01-17T23:53:33.933Z,0.16
2023-01-17T23:56:23.194Z,0.09
2023-01-17T23:58:50.383Z,0.13
